Time;durP1;ratioP1;P1;durP2;ratioP2;P2;SDS_P1;SDS_P2;PMS_P1;PMS_P2;Temp;Humidity;BMP_temperature;BMP_pressure;BME280_temperature;BME280_humidity;BME280_pressure;Samples;Min_cycle;Max_cycle;Signal;HPM_P1;HPM_P2
2023/04/29 00:01:12;;;;;;;36.80;21.55;;;8.70;99.90;;;;;;5019993;28;20455;-58
2023/04/29 00:03:38;;;;;;;38.08;21.15;;;9.20;99.90;;;;;;5018856;28;20057;-58
2023/04/29 00:06:03;;;;;;;37.17;23.05;;;8.90;99.90;;;;;;5019669;28;20046;-57
2023/04/29 00:08:29;;;;;;;36.88;21.85;;;9.00;99.90;;;;;;5018763;28;20038;-57
2023/04/29 00:10:55;;;;;;;37.75;21.58;;;8.80;99.90;;;;;;5019166;28;20037;-58
2023/04/29 00:13:20;;;;;;;38.42;21.40;;;9.10;99.90;;;;;;5019483;28;20053;-58
2023/04/29 00:15:46;;;;;;;37.70;21.27;;;8.70;99.90;;;;;;5018683;28;20034;-59
2023/04/29 00:18:12;;;;;;;37.72;21.02;;;9.10;99.90;;;;;;5019283;28;20046;-58
2023/04/29 00:20:38;;;;;;;35.25;21.08;;;8.60;99.90;;;;;;5018067;28;20494;-58
2023/04/29 00:23:05;;;;;;;31.85;20.30;;;8.60;99.90;;;;;;5019111;28;20069;-58
2023/04/29 00:25:31;;;;;;;33.22;20.05;;;9.10;99.90;;;;;;5018514;28;20054;-58
2023/04/29 00:28:00;;;;;;;36.70;20.30;;;8.70;99.90;;;;;;5018938;28;20087;-58
2023/04/29 00:30:27;;;;;;;33.03;19.35;;;8.90;99.90;;;;;;5018978;28;20084;-58
2023/04/29 00:32:53;;;;;;;35.70;20.85;;;9.10;99.90;;;;;;5018587;28;20048;-58
2023/04/29 00:35:20;;;;;;;34.25;19.23;;;8.70;99.90;;;;;;5001556;28;20042;-58
2023/04/29 00:37:45;;;;;;;33.67;19.35;;;9.10;99.90;;;;;;5018290;28;20044;-59
2023/04/29 00:40:13;;;;;;;33.83;19.35;;;8.70;99.90;;;;;;5000993;28;20532;-58
2023/04/29 00:42:40;;;;;;;36.25;19.60;;;9.10;99.90;;;;;;5018451;28;20057;-58
2023/04/29 00:45:07;;;;;;;30.60;18.90;;;9.00;99.90;;;;;;5018647;28;20053;-55
2023/04/29 00:47:32;;;;;;;37.38;19.42;;;9.10;99.90;;;;;;5018746;28;20180;-59
2023/04/29 00:49:58;;;;;;;36.55;18.48;;;8.70;99.90;;;;;;5018246;28;20521;-58
2023/04/29 00:52:26;;;;;;;31.33;18.60;;;9.00;99.90;;;;;;5018519;28;20092;-59
2023/04/29 00:54:51;;;;;;;31.70;18.02;;;8.60;99.90;;;;;;5018213;28;20044;-58
2023/04/29 00:57:18;;;;;;;31.77;18.70;;;8.60;99.90;;;;;;5018813;28;20081;-58
2023/04/29 00:59:45;;;;;;;34.63;19.33;;;8.60;99.90;;;;;;5018114;28;20164;-58
2023/04/29 01:02:11;;;;;;;30.70;18.10;;;8.60;99.90;;;;;;5018457;28;20045;-58
2023/04/29 01:04:37;;;;;;;29.83;17.92;;;8.60;99.90;;;;;;5000704;28;20057;-58
2023/04/29 01:07:35;;;;;;;30.75;18.92;;;9.10;99.90;;;;;;5017917;28;20418;-58
2023/04/29 01:10:03;;;;;;;33.15;18.60;;;8.90;99.90;;;;;;5018169;28;20054;-58
2023/04/29 01:12:37;;;;;;;33.47;19.65;;;8.90;99.90;;;;;;5017976;28;20410;-58
2023/04/29 01:15:16;;;;;;;30.40;17.45;;;8.60;99.90;;;;;;5017915;28;20038;-58
2023/04/29 01:17:49;;;;;;;31.77;18.42;;;9.00;99.90;;;;;;5018653;28;20058;-58
2023/04/29 01:20:16;;;;;;;33.95;18.70;;;8.80;99.90;;;;;;5017880;28;20118;-58
2023/04/29 01:22:41;;;;;;;30.70;19.65;;;8.70;99.90;;;;;;5018588;28;20080;-59
2023/04/29 01:25:08;;;;;;;34.00;19.23;;;8.70;99.90;;;;;;5017814;28;20038;-58
2023/04/29 01:27:55;;;;;;;38.35;20.60;;;8.80;99.90;;;;;;5018429;28;20049;-58
2023/04/29 01:30:47;;;;;;;31.85;19.70;;;8.60;99.90;;;;;;5018509;28;20071;-58
2023/04/29 01:33:19;;;;;;;;;;;9.00;99.90;;;;;;5017909;28;20053;-58
2023/04/29 01:36:12;;;;;;;33.95;19.40;;;8.90;99.90;;;;;;5018518;28;20328;-58
2023/04/29 01:38:47;;;;;;;33.35;20.05;;;8.60;99.90;;;;;;5017669;28;20046;-57
2023/04/29 01:41:35;;;;;;;30.23;19.08;;;8.90;99.90;;;;;;5018008;28;20046;-59
2023/04/29 01:44:03;;;;;;;33.45;19.67;;;8.80;99.90;;;;;;5018147;28;20045;-56
2023/04/29 01:46:30;;;;;;;32.95;19.23;;;8.40;99.90;;;;;;5017184;28;20034;-56
2023/04/29 01:48:55;;;;;;;32.08;19.48;;;8.60;99.90;;;;;;5018025;28;20038;-56
2023/04/29 01:51:21;;;;;;;31.35;19.67;;;8.60;99.90;;;;;;5017704;28;20413;-56
2023/04/29 01:53:47;;;;;;;31.30;19.15;;;8.20;99.90;;;;;;5017811;28;20053;-55
2023/04/29 01:56:13;;;;;;;38.67;19.98;;;8.10;99.90;;;;;;5017926;28;20045;-56
2023/04/29 01:58:38;;;;;;;31.88;19.52;;;8.40;99.90;;;;;;5017689;28;20107;-56
2023/04/29 02:01:05;;;;;;;34.95;19.45;;;8.30;99.90;;;;;;5018115;28;20489;-56
2023/04/29 02:03:30;;;;;;;33.20;19.33;;;8.40;99.90;;;;;;5017481;28;20050;-57
2023/04/29 02:05:57;;;;;;;29.75;18.52;;;8.00;99.90;;;;;;5018088;28;20041;-56
2023/04/29 02:08:22;;;;;;;31.98;19.15;;;7.90;99.90;;;;;;5017448;28;20045;-56
2023/04/29 02:10:53;;;;;;;32.13;19.55;;;8.20;99.90;;;;;;5017600;28;20049;-57
2023/04/29 02:13:19;;;;;;;34.25;18.25;;;7.80;99.90;;;;;;5018053;28;20053;-57
2023/04/29 02:15:44;;;;;;;37.58;19.52;;;7.70;99.90;;;;;;5016910;28;20054;-56
2023/04/29 02:18:10;;;;;;;29.88;18.45;;;8.10;99.90;;;;;;5018103;28;20042;-57
2023/04/29 02:20:36;;;;;;;31.90;17.38;;;7.80;99.90;;;;;;4999724;28;20290;-57
2023/04/29 02:23:01;;;;;;;36.13;18.52;;;7.90;99.90;;;;;;5000190;28;20050;-57
2023/04/29 02:25:27;;;;;;;32.92;19.65;;;7.80;99.90;;;;;;4999482;28;20052;-57
2023/04/29 02:27:52;;;;;;;35.15;20.02;;;8.00;99.90;;;;;;5017618;28;20062;-54
2023/04/29 02:30:18;;;;;;;36.80;20.08;;;8.10;99.90;;;;;;5017530;28;20052;-56
2023/04/29 02:32:44;;;;;;;38.05;20.33;;;8.20;99.90;;;;;;5017258;28;20074;-57
2023/04/29 02:35:09;;;;;;;35.97;20.70;;;8.00;99.90;;;;;;5017904;28;20045;-57
2023/04/29 02:37:35;;;;;;;36.83;20.52;;;8.30;99.90;;;;;;5017228;28;20157;-57
2023/04/29 02:40:02;;;;;;;42.17;23.33;;;8.40;99.90;;;;;;5017554;28;20046;-57
2023/04/29 02:42:28;;;;;;;40.78;22.52;;;8.00;99.90;;;;;;5016952;28;20085;-58
2023/04/29 02:44:54;;;;;;;35.50;20.58;;;8.10;99.90;;;;;;5019672;28;20057;-56
2023/04/29 02:47:19;;;;;;;41.80;20.58;;;8.50;99.90;;;;;;5021068;28;20583;-57
2023/04/29 02:49:45;;;;;;;36.70;20.23;;;8.20;99.90;;;;;;5020792;28;20072;-57
2023/04/29 02:52:11;;;;;;;34.20;18.50;;;8.20;99.90;;;;;;5021247;28;20061;-57
2023/04/29 02:54:37;;;;;;;31.73;18.20;;;8.60;99.90;;;;;;5020018;28;20042;-56
2023/04/29 02:57:03;;;;;;;32.67;17.17;;;8.20;99.90;;;;;;5021148;28;20049;-57
2023/04/29 02:59:28;;;;;;;32.25;16.00;;;8.60;99.90;;;;;;5019916;28;20072;-57
2023/04/29 03:01:54;;;;;;;31.38;15.18;;;8.20;99.90;;;;;;5020571;28;20042;-57
2023/04/29 03:04:20;;;;;;;29.63;15.13;;;8.30;99.90;;;;;;5020652;28;20101;-57
2023/04/29 03:06:45;;;;;;;27.10;14.98;;;8.60;99.90;;;;;;5002877;28;20482;-57
2023/04/29 03:09:13;;;;;;;34.15;15.70;;;8.30;99.90;;;;;;5002874;28;20092;-57
2023/04/29 03:11:38;;;;;;;32.60;16.20;;;8.30;99.90;;;;;;5020090;28;20421;-57
2023/04/29 03:14:04;;;;;;;29.80;14.75;;;8.70;99.90;;;;;;5020518;28;20049;-57
2023/04/29 03:16:30;;;;;;;29.58;15.60;;;8.20;99.90;;;;;;5020024;28;20494;-57
2023/04/29 03:18:56;;;;;;;32.45;16.23;;;8.30;99.90;;;;;;5020623;28;20947;-57
2023/04/29 03:21:24;;;;;;;27.52;15.90;;;8.20;99.90;;;;;;5020266;28;20038;-57
2023/04/29 03:23:49;;;;;;;28.52;15.55;;;8.50;99.90;;;;;;5020299;28;20046;-57
2023/04/29 03:26:15;;;;;;;30.00;14.20;;;8.30;99.90;;;;;;5020413;28;20049;-56
2023/04/29 03:28:41;;;;;;;29.25;15.60;;;8.30;99.90;;;;;;5019532;28;20041;-57
2023/04/29 03:31:07;;;;;;;26.50;15.70;;;8.40;99.90;;;;;;5020454;28;20516;-57
2023/04/29 03:33:33;;;;;;;25.17;14.52;;;8.40;99.90;;;;;;5019578;28;20049;-57
2023/04/29 03:35:58;;;;;;;26.75;13.15;;;8.60;99.90;;;;;;5020211;28;20419;-57
2023/04/29 03:38:27;;;;;;;31.55;14.77;;;8.40;99.90;;;;;;5019888;28;20052;-56
2023/04/29 03:40:53;;;;;;;31.25;15.20;;;8.30;99.90;;;;;;5019474;28;20101;-57
2023/04/29 03:43:18;;;;;;;32.83;14.95;;;8.40;99.90;;;;;;5019912;28;20046;-57
2023/04/29 03:45:44;;;;;;;26.65;14.80;;;8.70;99.90;;;;;;5019218;28;20164;-58
2023/04/29 03:48:11;;;;;;;29.20;16.17;;;8.50;99.90;;;;;;5002149;28;20487;-59
2023/04/29 03:50:37;;;;;;;27.60;15.30;;;8.20;99.90;;;;;;5018863;28;20137;-57
2023/04/29 03:53:02;;;;;;;29.98;17.10;;;8.30;99.90;;;;;;5019983;28;20073;-56
2023/04/29 03:55:28;;;;;;;31.58;17.58;;;8.40;99.90;;;;;;5017829;28;20042;-58
2023/04/29 03:57:54;;;;;;;35.63;19.42;;;8.30;99.90;;;;;;5019575;28;20056;-58
2023/04/29 04:00:20;;;;;;;32.92;18.27;;;8.70;99.90;;;;;;5019602;28;20038;-57
2023/04/29 04:02:46;;;;;;;32.17;16.67;;;8.30;99.90;;;;;;5019299;28;20041;-58
2023/04/29 04:05:11;;;;;;;26.92;15.73;;;8.30;99.90;;;;;;5019999;28;20038;-57
2023/04/29 04:07:37;;;;;;;27.33;14.32;;;8.20;99.90;;;;;;5018912;28;20669;-57
2023/04/29 04:10:03;;;;;;;26.90;13.25;;;8.30;99.90;;;;;;5019432;28;20041;-57
2023/04/29 04:12:29;;;;;;;22.92;12.93;;;8.20;99.90;;;;;;5019081;28;20045;-57
2023/04/29 04:14:55;;;;;;;28.58;13.07;;;8.30;99.90;;;;;;5019442;28;20449;-57
2023/04/29 04:17:21;;;;;;;22.55;12.50;;;8.60;99.90;;;;;;5001825;28;20050;-56
2023/04/29 04:19:47;;;;;;;22.27;11.70;;;8.60;99.90;;;;;;5019059;28;20420;-56
2023/04/29 04:22:12;;;;;;;22.88;12.30;;;8.60;99.90;;;;;;5020068;28;20050;-58
2023/04/29 04:24:38;;;;;;;21.40;11.30;;;8.60;99.90;;;;;;5018696;28;20078;-56
2023/04/29 04:27:04;;;;;;;23.35;10.98;;;8.60;99.90;;;;;;5019441;28;20038;-56
2023/04/29 04:29:29;;;;;;;20.48;11.00;;;8.50;99.90;;;;;;5018800;28;20043;-56
2023/04/29 04:31:55;;;;;;;17.77;10.23;;;8.30;99.90;;;;;;5019207;28;20038;-57
2023/04/29 04:34:21;;;;;;;19.35;11.10;;;8.60;99.90;;;;;;5019171;28;20524;-56
2023/04/29 04:36:46;;;;;;;24.45;10.35;;;8.20;99.90;;;;;;5018673;28;20078;-56
2023/04/29 04:39:12;;;;;;;23.73;11.13;;;8.30;99.90;;;;;;5019246;28;20073;-57
2023/04/29 04:41:38;;;;;;;19.88;10.52;;;8.60;99.90;;;;;;5018324;28;20062;-56
2023/04/29 04:44:04;;;;;;;24.50;11.07;;;8.60;99.90;;;;;;5019372;28;20046;-57
2023/04/29 04:46:30;;;;;;;22.33;10.98;;;8.60;99.90;;;;;;5018310;28;20147;-56
2023/04/29 04:48:55;;;;;;;21.73;10.98;;;8.30;99.90;;;;;;5018796;28;20038;-57
2023/04/29 04:51:21;;;;;;;20.42;11.75;;;8.30;99.90;;;;;;5018358;28;20050;-57
2023/04/29 04:53:47;;;;;;;23.45;10.30;;;8.60;99.90;;;;;;5018114;28;20085;-56
2023/04/29 04:56:13;;;;;;;19.70;10.60;;;8.30;99.90;;;;;;5001029;28;20049;-56
2023/04/29 04:58:38;;;;;;;24.58;11.27;;;8.30;99.90;;;;;;5017728;28;20046;-56
2023/04/29 05:01:04;;;;;;;20.27;11.02;;;8.40;99.90;;;;;;5019018;28;20046;-57
2023/04/29 05:03:30;;;;;;;20.13;11.52;;;8.60;99.90;;;;;;5018042;28;20604;-56
2023/04/29 05:05:59;;;;;;;31.67;11.50;;;8.50;99.90;;;;;;5018850;28;20080;-56
2023/04/29 05:08:25;;;;;;;18.77;9.80;;;8.70;99.90;;;;;;5017897;28;20315;-56
2023/04/29 05:10:51;;;;;;;19.75;10.00;;;8.50;99.90;;;;;;5018178;28;20076;-57
2023/04/29 05:13:17;;;;;;;18.05;10.95;;;8.60;99.90;;;;;;5018680;28;20034;-55
2023/04/29 05:15:43;;;;;;;18.35;10.10;;;8.50;99.90;;;;;;5017852;28;20106;-56
2023/04/29 05:18:10;;;;;;;20.23;10.10;;;8.60;99.90;;;;;;5018595;28;20038;-56
2023/04/29 05:20:35;;;;;;;20.17;10.98;;;8.80;99.90;;;;;;5017818;28;20104;-56
2023/04/29 05:23:02;;;;;;;20.65;10.95;;;8.60;99.90;;;;;;5018349;28;20038;-56
2023/04/29 05:25:28;;;;;;;18.45;9.38;;;8.50;99.90;;;;;;5017890;28;20052;-56
2023/04/29 05:27:53;;;;;;;18.08;10.55;;;8.80;99.90;;;;;;5018181;28;20046;-57
2023/04/29 05:30:20;;;;;;;18.05;9.35;;;8.60;99.90;;;;;;5018440;28;20048;-56
2023/04/29 05:32:46;;;;;;;19.25;9.02;;;8.70;99.90;;;;;;5017945;28;20041;-57
2023/04/29 05:35:11;;;;;;;17.38;9.15;;;8.90;99.90;;;;;;5018614;28;20591;-57
2023/04/29 05:37:37;;;;;;;18.65;9.15;;;8.90;99.90;;;;;;4999598;28;20101;-57
2023/04/29 05:40:03;;;;;;;14.13;8.75;;;8.80;99.90;;;;;;5018012;28;20050;-57
2023/04/29 05:42:29;;;;;;;19.23;9.20;;;9.00;99.90;;;;;;5017686;28;20069;-56
2023/04/29 05:44:55;;;;;;;17.42;8.73;;;8.90;99.90;;;;;;5018092;28;20034;-56
2023/04/29 05:47:21;;;;;;;18.83;9.40;;;8.80;99.90;;;;;;5018301;28;20034;-56
2023/04/29 05:49:47;;;;;;;16.73;8.75;;;8.90;99.90;;;;;;5016198;28;20552;-56
2023/04/29 05:52:13;;;;;;;21.27;9.48;;;8.60;99.90;;;;;;5014027;28;20048;-56
2023/04/29 05:54:38;;;;;;;16.92;8.60;;;8.70;99.90;;;;;;5013853;28;20054;-56
2023/04/29 05:57:04;;;;;;;16.48;8.48;;;8.90;99.90;;;;;;5014294;28;20061;-56
2023/04/29 05:59:30;;;;;;;20.20;8.57;;;8.80;99.90;;;;;;5013462;28;20154;-56
2023/04/29 06:01:57;;;;;;;16.60;9.65;;;9.00;99.90;;;;;;5013700;28;20049;-57
2023/04/29 06:04:26;;;;;;;18.42;9.18;;;9.00;99.90;;;;;;5013955;28;20516;-55
2023/04/29 06:06:54;;;;;;;18.05;8.85;;;9.10;99.90;;;;;;5013505;28;20054;-56
2023/04/29 06:09:19;;;;;;;19.48;9.30;;;9.20;99.90;;;;;;5014113;28;20054;-55
2023/04/29 06:11:46;;;;;;;18.30;8.60;;;9.40;99.90;;;;;;5013621;28;20042;-57
2023/04/29 06:14:12;;;;;;;16.05;8.05;;;9.30;99.90;;;;;;5014016;28;20406;-56
2023/04/29 06:16:38;;;;;;;17.63;8.32;;;9.60;99.90;;;;;;5013368;28;20056;-56
2023/04/29 06:19:04;;;;;;;18.15;8.60;;;9.50;99.90;;;;;;5015299;28;20126;-56
2023/04/29 06:21:30;;;;;;;15.95;8.25;;;9.60;99.90;;;;;;4999994;28;20077;-56
2023/04/29 06:23:56;;;;;;;15.85;7.65;;;9.60;99.90;;;;;;5017476;28;20054;-57
2023/04/29 06:26:22;;;;;;;16.88;7.40;;;9.80;99.90;;;;;;5017863;28;20077;-57
2023/04/29 06:28:48;;;;;;;12.82;7.40;;;9.60;99.90;;;;;;5017216;28;20422;-57
2023/04/29 06:31:15;;;;;;;15.98;7.82;;;9.60;99.90;;;;;;5017960;28;20105;-59
2023/04/29 06:33:40;;;;;;;15.05;7.90;;;9.80;99.90;;;;;;5016835;28;20054;-56
2023/04/29 06:36:06;;;;;;;15.77;7.28;;;9.80;99.90;;;;;;5017167;28;20075;-57
2023/04/29 06:38:32;;;;;;;14.43;6.97;;;9.80;99.90;;;;;;5017053;28;20034;-56
2023/04/29 06:40:59;;;;;;;14.68;6.90;;;9.90;99.90;;;;;;5017160;28;20049;-57
2023/04/29 06:43:29;;;;;;;18.88;8.35;;;10.10;99.90;;;;;;5017553;28;20050;-56
2023/04/29 06:45:55;;;;;;;17.85;7.28;;;10.10;99.90;;;;;;5016735;28;20052;-56
2023/04/29 06:48:21;;;;;;;16.25;7.28;;;10.10;99.90;;;;;;5017218;28;20132;-57
2023/04/29 06:50:55;;;;;;;16.63;7.82;;;10.20;99.90;;;;;;5016284;28;20242;-57
2023/04/29 06:53:21;;;;;;;16.33;6.55;;;10.20;99.90;;;;;;5017173;28;20070;-56
2023/04/29 06:55:47;;;;;;;20.52;7.70;;;10.20;99.90;;;;;;5017122;28;20064;-56
2023/04/29 06:58:17;;;;;;;14.88;6.97;;;10.30;99.90;;;;;;5016724;28;20064;-57
2023/04/29 07:00:47;;;;;;;20.17;7.70;;;10.40;99.90;;;;;;5017010;28;20049;-57
2023/04/29 07:03:14;;;;;;;13.82;6.90;;;10.30;99.90;;;;;;4997766;28;20054;-58
2023/04/29 07:05:40;;;;;;;14.70;6.93;;;10.40;99.90;;;;;;5017279;28;20056;-57
2023/04/29 07:08:07;;;;;;;14.02;7.15;;;10.30;99.90;;;;;;5015383;28;20056;-58
2023/04/29 07:10:33;;;;;;;16.10;7.50;;;10.50;99.90;;;;;;4982526;28;20093;-58
2023/04/29 07:12:59;;;;;;;13.20;6.53;;;10.40;99.90;;;;;;5016770;28;20674;-57
2023/04/29 07:15:26;;;;;;;18.10;7.30;;;10.60;99.90;;;;;;5015775;28;20042;-58
2023/04/29 07:17:52;;;;;;;16.33;7.10;;;10.70;99.90;;;;;;4999635;28;20053;-58
2023/04/29 07:20:18;;;;;;;15.45;7.28;;;10.70;99.90;;;;;;5015913;28;20041;-57
2023/04/29 07:22:44;;;;;;;18.77;7.75;;;10.80;99.90;;;;;;5016309;28;20052;-57
2023/04/29 07:25:09;;;;;;;13.43;7.20;;;10.80;99.90;;;;;;5015614;28;20409;-58
2023/04/29 07:27:36;;;;;;;15.75;7.05;;;10.80;99.90;;;;;;5015225;28;20054;-57
2023/04/29 07:30:02;;;;;;;17.45;6.70;;;11.00;99.90;;;;;;5015906;28;20501;-57
2023/04/29 07:32:30;;;;;;;13.85;6.97;;;10.90;99.90;;;;;;5031252;28;20037;-58
2023/04/29 07:34:56;;;;;;;15.38;6.80;;;11.00;99.90;;;;;;5016883;28;20081;-59
2023/04/29 07:37:22;;;;;;;15.57;6.72;;;11.00;99.90;;;;;;5015931;28;20105;-58
2023/04/29 07:39:48;;;;;;;13.32;5.72;;;11.10;99.90;;;;;;5015825;28;20084;-58
2023/04/29 07:42:13;;;;;;;14.25;5.93;;;11.20;99.90;;;;;;5016000;28;20125;-58
2023/04/29 07:44:40;;;;;;;17.10;6.68;;;11.20;99.90;;;;;;5015620;28;20041;-57
2023/04/29 07:47:05;;;;;;;13.82;6.22;;;11.20;99.90;;;;;;5016226;28;20576;-57
2023/04/29 07:49:31;;;;;;;14.38;6.22;;;11.10;99.90;;;;;;4998121;28;20060;-58
2023/04/29 07:51:57;;;;;;;17.55;6.63;;;11.10;99.90;;;;;;5015677;28;20137;-58
2023/04/29 07:54:22;;;;;;;13.27;5.60;;;11.20;99.90;;;;;;5015599;28;20045;-57
2023/04/29 07:56:48;;;;;;;14.55;5.60;;;11.20;99.90;;;;;;5016186;28;20049;-58
2023/04/29 07:59:15;;;;;;;12.07;5.07;;;11.30;99.90;;;;;;4997405;28;20057;-58
2023/04/29 08:01:41;;;;;;;12.85;5.18;;;11.30;99.90;;;;;;5015496;28;20100;-58
2023/04/29 08:04:07;;;;;;;12.48;5.30;;;11.30;99.90;;;;;;5014903;28;20054;-58
2023/04/29 08:06:33;;;;;;;12.77;5.28;;;11.40;99.90;;;;;;5015306;28;20707;-57
2023/04/29 08:08:59;;;;;;;12.77;4.80;;;11.50;99.90;;;;;;5015617;28;20582;-57
2023/04/29 08:11:25;;;;;;;11.57;4.60;;;11.60;99.90;;;;;;5013875;28;20046;-58
2023/04/29 08:13:52;;;;;;;10.18;5.10;;;11.60;99.90;;;;;;5014663;28;20098;-58
2023/04/29 08:16:18;;;;;;;10.75;5.65;;;11.50;99.90;;;;;;5013163;28;20100;-57
2023/04/29 08:18:43;;;;;;;10.98;4.35;;;11.50;99.90;;;;;;5015845;28;20057;-58
2023/04/29 08:21:12;;;;;;;16.92;5.93;;;11.60;99.90;;;;;;5015010;28;20070;-57
2023/04/29 08:23:39;;;;;;;8.82;4.57;;;11.70;99.90;;;;;;5015469;28;20042;-58
2023/04/29 08:26:05;;;;;;;11.05;4.45;;;11.60;99.90;;;;;;5015384;28;20139;-58
2023/04/29 08:28:30;;;;;;;9.93;4.03;;;11.60;99.90;;;;;;5014080;28;20042;-57
2023/04/29 08:30:56;;;;;;;8.98;3.88;;;11.70;99.90;;;;;;5010685;28;20080;-58
2023/04/29 08:33:22;;;;;;;9.95;3.95;;;11.70;99.90;;;;;;5010374;28;20077;-58
2023/04/29 08:35:48;;;;;;;9.75;3.72;;;11.80;99.90;;;;;;5022842;28;20366;-58
2023/04/29 08:38:16;;;;;;;9.93;3.80;;;11.80;99.90;;;;;;5010827;28;20034;-58
2023/04/29 08:40:45;;;;;;;8.15;3.20;;;11.80;99.90;;;;;;5008649;28;20046;-58
2023/04/29 08:43:14;;;;;;;11.02;3.50;;;11.70;99.90;;;;;;5010169;28;20042;-58
2023/04/29 08:45:41;;;;;;;7.85;3.65;;;11.80;99.90;;;;;;4987437;28;20050;-58
2023/04/29 08:48:07;;;;;;;9.27;3.67;;;12.00;99.90;;;;;;5006213;28;20049;-58
2023/04/29 08:50:40;;;;;;;8.90;3.38;;;12.10;99.90;;;;;;5012303;28;20046;-58
2023/04/29 08:53:10;;;;;;;10.18;3.53;;;12.10;99.90;;;;;;5010016;28;20058;-59
2023/04/29 08:55:44;;;;;;;10.20;4.10;;;12.20;99.90;;;;;;5009540;28;20080;-58
2023/04/29 08:58:13;;;;;;;7.97;3.78;;;12.20;99.90;;;;;;5009764;28;20060;-58
2023/04/29 09:00:41;;;;;;;10.50;3.72;;;12.20;99.90;;;;;;5006681;28;20801;-58
2023/04/29 09:03:17;;;;;;;8.48;4.22;;;12.20;99.90;;;;;;5010218;28;20551;-58
2023/04/29 09:05:45;;;;;;;9.10;4.38;;;12.20;99.90;;;;;;5000894;28;20061;-58
2023/04/29 09:08:12;;;;;;;10.02;4.07;;;12.30;99.90;;;;;;5010123;28;20054;-59
2023/04/29 09:10:41;;;;;;;10.70;4.65;;;12.40;99.90;;;;;;4987925;28;20054;-59
2023/04/29 09:13:07;;;;;;;10.50;4.45;;;12.50;99.90;;;;;;5005886;28;20528;-59
2023/04/29 09:15:39;;;;;;;8.90;4.63;;;12.50;99.90;;;;;;5009110;28;20494;-59
2023/04/29 09:18:05;;;;;;;10.05;5.40;;;12.40;99.90;;;;;;5010749;28;20097;-58
2023/04/29 09:20:30;;;;;;;12.93;5.00;;;12.40;99.90;;;;;;4991430;28;20069;-58
2023/04/29 09:23:00;;;;;;;10.32;4.65;;;12.50;99.90;;;;;;5008253;28;20068;-57
2023/04/29 09:25:26;;;;;;;13.50;5.18;;;12.50;99.90;;;;;;5009123;28;20073;-59
2023/04/29 09:27:53;;;;;;;10.85;5.07;;;12.60;99.90;;;;;;5010539;28;20394;-59
2023/04/29 09:30:20;;;;;;;10.98;5.00;;;12.60;99.90;;;;;;5010005;28;20587;-58
2023/04/29 09:33:04;;;;;;;9.32;4.70;;;12.70;99.90;;;;;;5007695;28;20041;-58
2023/04/29 09:35:30;;;;;;;9.50;5.43;;;12.80;99.90;;;;;;5015912;28;20046;-58
2023/04/29 09:38:10;;;;;;;11.55;5.13;;;12.40;99.90;;;;;;5016374;28;20038;-58
2023/04/29 09:40:37;;;;;;;11.05;5.45;;;12.60;99.90;;;;;;5017390;28;20089;-58
2023/04/29 09:43:11;;;;;;;14.57;5.55;;;12.60;99.90;;;;;;5017624;28;20102;-58
2023/04/29 09:45:40;;;;;;;12.35;5.75;;;12.50;99.90;;;;;;5016773;28;20054;-58
2023/04/29 09:48:08;;;;;;;11.68;5.97;;;12.60;99.90;;;;;;5018246;28;20141;-58
2023/04/29 09:50:38;;;;;;;12.77;5.63;;;12.70;99.90;;;;;;5017450;28;20046;-58
2023/04/29 09:53:07;;;;;;;11.80;5.53;;;12.60;99.90;;;;;;5017762;28;20077;-59
2023/04/29 09:55:34;;;;;;;11.77;5.55;;;12.70;99.90;;;;;;5021920;28;20046;-58
2023/04/29 09:58:00;;;;;;;11.68;5.32;;;12.80;99.90;;;;;;5021351;28;20050;-58
2023/04/29 10:00:30;;;;;;;11.52;4.72;;;12.80;99.90;;;;;;5022493;28;20097;-58
2023/04/29 10:02:59;;;;;;;11.70;5.53;;;12.80;99.90;;;;;;5021631;28;20065;-58
2023/04/29 10:05:28;;;;;;;10.35;5.30;;;12.70;99.90;;;;;;5022309;28;20041;-59
2023/04/29 10:07:55;;;;;;;12.82;5.07;;;12.50;99.90;;;;;;5020858;28;20034;-58
2023/04/29 10:10:23;;;;;;;10.27;5.10;;;12.70;99.90;;;;;;5020998;28;20038;-58
2023/04/29 10:12:52;;;;;;;13.05;5.40;;;12.80;99.90;;;;;;5020876;28;20041;-58
2023/04/29 10:15:48;;;;;;;12.27;5.28;;;12.90;99.90;;;;;;5021064;28;20046;-58
2023/04/29 10:18:24;;;;;;;11.75;5.03;;;13.10;99.90;;;;;;5021742;28;20077;-57
2023/04/29 10:20:51;;;;;;;8.85;4.15;;;13.20;99.90;;;;;;5021002;28;20050;-58
2023/04/29 10:23:19;;;;;;;7.65;3.28;;;13.20;99.90;;;;;;5021512;28;20050;-58
2023/04/29 10:25:46;;;;;;;7.47;3.78;;;13.20;99.90;;;;;;5021547;28;20572;-58
2023/04/29 10:28:15;;;;;;;9.00;3.08;;;13.40;99.90;;;;;;5003430;28;20058;-58
2023/04/29 10:30:48;;;;;;;7.82;3.33;;;13.40;99.90;;;;;;4988406;28;20049;-58
2023/04/29 10:33:15;;;;;;;10.23;3.63;;;13.30;99.90;;;;;;5020439;28;20073;-59
2023/04/29 10:35:43;;;;;;;7.47;3.47;;;13.00;99.90;;;;;;5020399;28;20069;-58
2023/04/29 10:38:33;;;;;;;10.07;3.70;;;12.90;99.90;;;;;;5020655;28;20057;-58
2023/04/29 10:41:05;;;;;;;8.70;3.85;;;13.00;99.90;;;;;;5021031;28;20060;-57
2023/04/29 10:43:31;;;;;;;;;;;13.10;99.90;;;;;;5021887;28;20048;-58
2023/04/29 10:46:15;;;;;;;7.93;2.80;;;13.10;99.90;;;;;;5020436;28;19925;-58
2023/04/29 10:48:43;;;;;;;6.30;3.00;;;13.20;99.90;;;;;;5017122;28;20050;-58
2023/04/29 10:51:08;;;;;;;7.10;2.80;;;12.90;99.90;;;;;;5016694;28;20054;-58
2023/04/29 10:53:34;;;;;;;5.60;2.60;;;13.20;99.90;;;;;;5020310;28;20042;-58
2023/04/29 10:56:07;;;;;;;6.28;2.47;;;13.10;99.90;;;;;;5020923;28;20061;-58
2023/04/29 10:58:45;;;;;;;7.22;2.60;;;13.20;99.90;;;;;;5020018;28;20050;-58
2023/04/29 11:01:16;;;;;;;6.63;2.78;;;13.20;99.90;;;;;;5020633;28;20037;-57
2023/04/29 11:04:03;;;;;;;7.43;2.40;;;13.20;99.90;;;;;;5020246;28;20121;-58
2023/04/29 11:06:35;;;;;;;5.95;2.47;;;13.00;99.90;;;;;;5019938;28;20571;-59
2023/04/29 11:09:09;;;;;;;9.30;3.33;;;12.90;99.90;;;;;;5020141;28;20132;-59
2023/04/29 11:11:48;;;;;;;8.40;2.92;;;13.20;99.90;;;;;;5019862;28;20060;-58
2023/04/29 11:14:20;;;;;;;6.75;2.78;;;13.20;99.90;;;;;;5020592;28;20409;-58
2023/04/29 11:16:48;;;;;;;7.25;2.70;;;13.20;99.90;;;;;;5020021;28;20042;-59
2023/04/29 11:19:16;;;;;;;10.20;3.33;;;13.20;99.90;;;;;;5019661;28;20041;-58
2023/04/29 11:21:44;;;;;;;8.40;3.40;;;13.30;99.90;;;;;;5020642;28;20068;-57
2023/04/29 11:24:11;;;;;;;9.10;3.45;;;13.30;99.90;;;;;;5019683;28;20129;-58
2023/04/29 11:26:37;;;;;;;8.65;2.92;;;13.20;99.90;;;;;;5003046;28;20056;-58
2023/04/29 11:29:09;;;;;;;9.82;3.30;;;13.20;99.90;;;;;;5019806;28;20141;-59
2023/04/29 11:31:35;;;;;;;6.97;3.25;;;13.20;99.90;;;;;;5020326;28;20402;-58
2023/04/29 11:34:03;;;;;;;8.65;3.25;;;13.40;99.90;;;;;;5019817;28;20046;-58
2023/04/29 11:36:31;;;;;;;9.25;2.95;;;13.30;99.90;;;;;;5020098;28;20137;-58
2023/04/29 11:39:00;;;;;;;7.35;2.80;;;13.30;99.90;;;;;;5020372;28;20060;-58
2023/04/29 11:41:26;;;;;;;7.18;2.90;;;13.30;99.90;;;;;;5019856;28;20049;-58
2023/04/29 11:43:59;;;;;;;6.30;2.42;;;13.20;99.90;;;;;;5002781;28;20057;-58
2023/04/29 11:46:29;;;;;;;7.13;2.45;;;13.10;99.90;;;;;;5019096;28;20045;-57
2023/04/29 11:48:58;;;;;;;5.50;2.30;;;13.00;99.90;;;;;;5019851;28;20034;-56
2023/04/29 11:51:24;;;;;;;6.22;2.50;;;13.30;99.90;;;;;;5019943;28;20065;-56
2023/04/29 11:53:50;;;;;;;7.63;2.28;;;13.20;99.90;;;;;;5019386;28;20050;-56
2023/04/29 11:56:16;;;;;;;5.50;2.35;;;13.50;99.90;;;;;;5020205;28;20422;-55
2023/04/29 11:58:43;;;;;;;5.57;2.05;;;13.50;99.90;;;;;;5019324;28;20822;-56
2023/04/29 12:01:08;;;;;;;8.00;3.10;;;12.80;99.90;;;;;;5020141;28;20065;-57
2023/04/29 12:03:35;;;;;;;8.18;3.10;;;12.90;99.90;;;;;;5019121;28;20413;-56
2023/04/29 12:06:01;;;;;;;8.70;2.80;;;13.10;99.90;;;;;;5019479;28;20073;-56
2023/04/29 12:08:29;;;;;;;9.23;3.22;;;13.20;99.90;;;;;;5019406;28;20095;-56
2023/04/29 12:10:58;;;;;;;9.05;3.10;;;13.30;99.90;;;;;;5019066;28;20042;-55
2023/04/29 12:13:29;;;;;;;6.38;2.13;;;13.20;99.90;;;;;;5019832;28;20034;-56
2023/04/29 12:15:56;;;;;;;7.38;2.30;;;13.20;99.90;;;;;;5018093;28;20525;-56
2023/04/29 12:18:23;;;;;;;7.03;2.35;;;12.90;99.90;;;;;;5019275;28;20045;-56
2023/04/29 12:20:54;;;;;;;5.68;2.20;;;12.90;99.90;;;;;;5018725;28;20080;-56
2023/04/29 12:23:22;;;;;;;5.78;2.28;;;12.70;99.90;;;;;;5002309;28;20042;-56
2023/04/29 12:25:56;;;;;;;7.00;4.00;;;12.90;99.90;;;;;;5019463;28;20048;-56
2023/04/29 12:28:22;;;;;;;8.18;2.70;;;13.00;99.90;;;;;;5018995;28;20058;-57
2023/04/29 12:30:51;;;;;;;6.50;2.30;;;13.30;99.90;;;;;;5019666;28;20069;-56
2023/04/29 12:33:21;;;;;;;7.55;2.70;;;13.10;99.90;;;;;;5017214;28;20034;-57
2023/04/29 12:35:49;;;;;;;6.00;2.63;;;13.40;99.90;;;;;;5018597;28;20050;-57
2023/04/29 12:38:18;;;;;;;7.63;2.50;;;13.60;99.90;;;;;;5018835;28;20046;-57
2023/04/29 12:40:44;;;;;;;6.05;2.70;;;13.60;99.90;;;;;;5018665;28;20077;-57
2023/04/29 12:43:10;;;;;;;7.00;2.30;;;13.70;99.90;;;;;;5019455;28;20065;-57